Time;durP1;ratioP1;P1;durP2;ratioP2;P2;SDS_P1;SDS_P2;PMS_P1;PMS_P2;Temp;Humidity;BMP_temperature;BMP_pressure;BME280_temperature;BME280_humidity;BME280_pressure;Samples;Min_cycle;Max_cycle;Signal;HPM_P1;HPM_P2
2020/12/20 00:01:40;;;;;;;91.85;48.47;;;;;;;;;;5069800;28;20054;-80
2020/12/20 00:04:07;;;;;;;90.20;46.72;;;;;;;;;;5086385;28;20115;-80
2020/12/20 00:06:39;;;;;;;86.28;46.15;;;;;;;;;;5077999;28;20428;-80
2020/12/20 00:09:14;;;;;;;94.78;48.47;;;;;;;;;;5059445;28;20048;-82
2020/12/20 00:11:41;;;;;;;93.03;48.22;;;;;;;;;;5087622;28;20024;-81
2020/12/20 00:16:52;;;;;;;86.18;44.90;;;;;;;;;;5088155;28;20090;-81
2020/12/20 00:19:18;;;;;;;93.43;48.92;;;;;;;;;;5068280;28;20020;-81
2020/12/20 00:21:44;;;;;;;88.53;46.42;;;;;;;;;;5076477;28;20111;-80
2020/12/20 00:24:11;;;;;;;82.85;44.08;;;;;;;;;;5077477;28;20040;-82
2020/12/20 00:26:37;;;;;;;93.30;47.25;;;;;;;;;;5097846;28;20412;-79
2020/12/20 00:29:04;;;;;;;90.72;44.90;;;;;;;;;;5097489;28;20024;-79
2020/12/20 00:31:30;;;;;;;89.70;46.28;;;;;;;;;;5097867;28;20020;-78
2020/12/20 00:33:56;;;;;;;90.72;45.75;;;;;;;;;;5097557;28;20413;-79
2020/12/20 00:36:22;;;;;;;83.25;44.03;;;;;;;;;;5079745;28;20090;-80
2020/12/20 00:38:49;;;;;;;80.78;42.65;;;;;;;;;;5097431;28;20028;-80
2020/12/20 00:41:15;;;;;;;86.75;44.17;;;;;;;;;;5097874;28;20020;-78
2020/12/20 00:43:41;;;;;;;80.28;43.42;;;;;;;;;;5097698;28;20318;-79
2020/12/20 00:46:07;;;;;;;85.88;44.10;;;;;;;;;;5097530;28;20024;-79
2020/12/20 00:48:33;;;;;;;85.95;42.33;;;;;;;;;;5097420;28;20027;-80
2020/12/20 00:51:00;;;;;;;87.20;43.47;;;;;;;;;;5097392;28;20115;-80
2020/12/20 00:53:26;;;;;;;89.65;45.17;;;;;;;;;;5097421;28;20024;-80
2020/12/20 00:55:52;;;;;;;79.15;44.05;;;;;;;;;;5097406;28;20012;-80
2020/12/20 00:58:19;;;;;;;94.78;46.65;;;;;;;;;;5097391;28;20025;-80
2020/12/20 01:00:45;;;;;;;95.00;48.42;;;;;;;;;;5097469;28;20321;-81
2020/12/20 01:03:11;;;;;;;94.25;49.53;;;;;;;;;;5097254;28;20402;-80
2020/12/20 01:05:37;;;;;;;102.53;51.25;;;;;;;;;;5097223;28;20036;-78
2020/12/20 01:08:03;;;;;;;102.57;51.30;;;;;;;;;;5097238;28;20424;-78
2020/12/20 01:10:29;;;;;;;97.75;49.92;;;;;;;;;;5097004;28;20048;-79
2020/12/20 01:12:55;;;;;;;98.05;51.83;;;;;;;;;;5097273;28;20043;-79
2020/12/20 01:15:21;;;;;;;107.10;52.58;;;;;;;;;;5097492;28;20472;-79
2020/12/20 01:17:47;;;;;;;99.95;50.25;;;;;;;;;;5079552;28;20020;-79
2020/12/20 01:20:13;;;;;;;101.75;51.15;;;;;;;;;;5096869;28;20020;-79
2020/12/20 01:22:39;;;;;;;103.38;48.40;;;;;;;;;;5097240;28;20024;-79
2020/12/20 01:25:05;;;;;;;100.97;48.95;;;;;;;;;;5097192;28;20024;-79
2020/12/20 01:27:31;;;;;;;97.22;50.20;;;;;;;;;;5097028;28;20136;-79
2020/12/20 01:29:57;;;;;;;103.80;51.55;;;;;;;;;;5096948;28;20028;-79
2020/12/20 01:32:23;;;;;;;94.72;48.30;;;;;;;;;;5097012;28;20021;-79
2020/12/20 01:34:49;;;;;;;91.10;47.42;;;;;;;;;;5096944;28;20070;-79
2020/12/20 01:37:15;;;;;;;100.40;49.03;;;;;;;;;;5096922;28;20107;-79
2020/12/20 01:39:41;;;;;;;95.60;46.97;;;;;;;;;;5096821;28;20040;-80
2020/12/20 01:42:07;;;;;;;92.95;47.85;;;;;;;;;;5096939;28;20043;-80
2020/12/20 01:44:36;;;;;;;94.15;46.78;;;;;;;;;;5096861;28;20119;-81
2020/12/20 01:47:02;;;;;;;92.25;46.50;;;;;;;;;;5096868;28;20050;-80
2020/12/20 01:49:28;;;;;;;88.35;45.83;;;;;;;;;;5096707;28;20112;-80
2020/12/20 01:51:54;;;;;;;90.63;45.97;;;;;;;;;;5078487;28;20028;-81
2020/12/20 01:54:21;;;;;;;93.43;46.95;;;;;;;;;;5096944;28;20019;-81
2020/12/20 01:56:48;;;;;;;86.78;44.13;;;;;;;;;;5097109;28;20309;-80
2020/12/20 01:59:14;;;;;;;89.50;44.08;;;;;;;;;;5097013;28;20024;-80
2020/12/20 02:01:40;;;;;;;105.15;49.22;;;;;;;;;;5096727;28;20059;-80
2020/12/20 02:04:06;;;;;;;99.32;48.35;;;;;;;;;;5096754;28;20028;-79
2020/12/20 02:06:32;;;;;;;106.07;51.33;;;;;;;;;;5096646;28;20046;-80
2020/12/20 02:08:58;;;;;;;106.85;49.75;;;;;;;;;;5096355;28;20139;-80
2020/12/20 02:11:24;;;;;;;96.20;46.10;;;;;;;;;;5096607;28;20283;-80
2020/12/20 02:13:51;;;;;;;84.85;43.00;;;;;;;;;;5096829;28;20012;-80
2020/12/20 02:16:18;;;;;;;88.88;44.28;;;;;;;;;;5096687;28;20022;-80
2020/12/20 02:18:44;;;;;;;86.82;43.85;;;;;;;;;;5100230;28;20020;-80
2020/12/20 02:21:12;;;;;;;89.03;43.03;;;;;;;;;;5100144;28;20024;-80
2020/12/20 02:23:42;;;;;;;89.45;43.75;;;;;;;;;;5100474;28;20032;-78
2020/12/20 02:26:08;;;;;;;85.88;42.30;;;;;;;;;;5099940;28;20020;-79
2020/12/20 02:28:35;;;;;;;88.35;43.90;;;;;;;;;;5100078;28;20024;-80
2020/12/20 02:31:01;;;;;;;83.32;43.42;;;;;;;;;;5099983;28;20318;-79
2020/12/20 02:33:27;;;;;;;84.47;42.78;;;;;;;;;;5081591;28;20056;-79
2020/12/20 02:35:53;;;;;;;100.03;45.80;;;;;;;;;;5099934;28;20020;-79
2020/12/20 02:38:20;;;;;;;92.18;44.17;;;;;;;;;;5100036;28;20024;-80
2020/12/20 02:40:46;;;;;;;95.68;45.10;;;;;;;;;;5081958;28;20111;-80
2020/12/20 02:43:12;;;;;;;88.82;43.45;;;;;;;;;;5100101;28;20032;-80
2020/12/20 02:45:39;;;;;;;92.82;44.65;;;;;;;;;;5099962;28;20024;-80
2020/12/20 02:48:05;;;;;;;86.28;43.92;;;;;;;;;;5099657;28;20031;-78
2020/12/20 02:50:31;;;;;;;87.38;45.70;;;;;;;;;;5099360;28;20020;-80
2020/12/20 02:52:57;;;;;;;96.60;46.60;;;;;;;;;;5081369;28;20035;-80
2020/12/20 02:55:23;;;;;;;84.15;43.67;;;;;;;;;;5081632;28;20021;-79
2020/12/20 02:57:49;;;;;;;94.40;45.95;;;;;;;;;;5099534;28;20024;-80
2020/12/20 03:00:15;;;;;;;92.05;46.78;;;;;;;;;;5099439;28;20030;-79
2020/12/20 03:02:41;;;;;;;99.70;47.08;;;;;;;;;;5099776;28;20020;-80
2020/12/20 03:05:25;;;;;;;92.20;46.55;;;;;;;;;;5099592;28;20108;-79
2020/12/20 03:07:51;;;;;;;94.55;47.83;;;;;;;;;;5099382;28;20028;-79
2020/12/20 03:10:17;;;;;;;90.10;45.97;;;;;;;;;;5098830;28;20052;-79
2020/12/20 03:12:44;;;;;;;89.07;46.72;;;;;;;;;;5099216;28;20050;-79
2020/12/20 03:15:11;;;;;;;92.15;47.22;;;;;;;;;;5099297;28;20103;-79
2020/12/20 03:17:37;;;;;;;96.35;47.38;;;;;;;;;;5099143;28;20058;-79
2020/12/20 03:20:04;;;;;;;100.18;48.33;;;;;;;;;;5099058;28;20031;-79
2020/12/20 03:22:30;;;;;;;96.53;48.33;;;;;;;;;;5099199;28;20039;-79
2020/12/20 03:24:56;;;;;;;90.95;45.63;;;;;;;;;;5099147;28;20027;-79
2020/12/20 03:27:22;;;;;;;90.90;47.25;;;;;;;;;;5099216;28;20091;-80
2020/12/20 03:29:48;;;;;;;96.22;48.03;;;;;;;;;;5080918;28;20020;-80
2020/12/20 03:32:14;;;;;;;95.55;48.10;;;;;;;;;;5081081;28;20433;-81
2020/12/20 03:34:40;;;;;;;95.50;47.45;;;;;;;;;;5098768;28;20442;-80
2020/12/20 03:37:07;;;;;;;98.22;47.53;;;;;;;;;;5099097;28;20062;-80
2020/12/20 03:39:33;;;;;;;96.65;48.10;;;;;;;;;;5080456;28;20040;-80
2020/12/20 03:41:59;;;;;;;103.28;48.25;;;;;;;;;;5098664;28;20074;-80
2020/12/20 03:44:25;;;;;;;101.35;47.65;;;;;;;;;;5098535;28;20441;-80
2020/12/20 03:46:51;;;;;;;104.93;47.60;;;;;;;;;;5098730;28;20047;-80
2020/12/20 03:49:35;;;;;;;94.90;46.70;;;;;;;;;;5098610;28;20024;-80
2020/12/20 03:52:01;;;;;;;107.95;49.58;;;;;;;;;;5098319;28;20032;-80
2020/12/20 03:54:27;;;;;;;98.43;48.42;;;;;;;;;;5098471;28;20103;-80
2020/12/20 03:56:55;;;;;;;104.43;48.63;;;;;;;;;;5098390;28;20397;-80
2020/12/20 03:59:21;;;;;;;100.15;47.50;;;;;;;;;;5080151;28;20512;-80
2020/12/20 04:01:48;;;;;;;100.93;45.70;;;;;;;;;;5098122;28;20022;-79
2020/12/20 04:04:14;;;;;;;99.90;48.08;;;;;;;;;;5098233;28;20028;-79
2020/12/20 04:06:40;;;;;;;97.25;45.28;;;;;;;;;;5098594;28;20024;-79
2020/12/20 04:09:06;;;;;;;95.75;45.95;;;;;;;;;;5097785;28;20083;-79
2020/12/20 04:11:32;;;;;;;94.65;44.97;;;;;;;;;;5098272;28;20043;-79
2020/12/20 04:13:58;;;;;;;96.60;45.45;;;;;;;;;;5098133;28;20042;-79
2020/12/20 04:16:24;;;;;;;97.50;45.83;;;;;;;;;;5097998;28;20314;-79
2020/12/20 04:18:50;;;;;;;107.60;51.33;;;;;;;;;;5097845;28;20016;-78
2020/12/20 04:21:16;;;;;;;116.35;56.13;;;;;;;;;;5098197;28;20123;-78
2020/12/20 04:23:42;;;;;;;109.00;53.65;;;;;;;;;;5080064;28;20373;-79
2020/12/20 04:26:08;;;;;;;110.25;53.20;;;;;;;;;;5079561;28;20393;-80
2020/12/20 04:28:35;;;;;;;121.45;57.15;;;;;;;;;;5097705;28;20329;-80
2020/12/20 04:31:01;;;;;;;116.60;54.28;;;;;;;;;;5097995;28;20020;-79
2020/12/20 04:33:27;;;;;;;108.60;51.45;;;;;;;;;;5097693;28;20020;-79
2020/12/20 04:36:11;;;;;;;123.07;58.05;;;;;;;;;;5097681;28;20031;-80
2020/12/20 04:38:37;;;;;;;162.02;74.60;;;;;;;;;;5079665;28;20082;-80
2020/12/20 04:41:03;;;;;;;212.98;100.75;;;;;;;;;;5097498;28;20082;-80
2020/12/20 04:43:29;;;;;;;130.80;64.60;;;;;;;;;;5097584;28;20073;-80
2020/12/20 04:45:57;;;;;;;133.90;68.00;;;;;;;;;;5097528;28;20115;-80
2020/12/20 04:48:24;;;;;;;119.60;60.58;;;;;;;;;;5097219;28;20020;-79
2020/12/20 04:50:51;;;;;;;129.52;65.57;;;;;;;;;;5097285;28;20035;-79
2020/12/20 04:53:18;;;;;;;129.48;62.97;;;;;;;;;;5097534;28;20024;-79
2020/12/20 04:55:44;;;;;;;240.50;126.63;;;;;;;;;;5097446;28;20024;-80
2020/12/20 04:58:11;;;;;;;202.93;108.03;;;;;;;;;;5079119;28;20113;-80
2020/12/20 05:00:37;;;;;;;222.18;123.28;;;;;;;;;;5097265;28;20028;-79
2020/12/20 05:03:03;;;;;;;145.38;75.53;;;;;;;;;;5079614;28;20417;-78
2020/12/20 05:05:29;;;;;;;139.60;71.18;;;;;;;;;;5097360;28;20024;-78
2020/12/20 05:07:56;;;;;;;181.13;87.38;;;;;;;;;;5097420;28;20362;-78
2020/12/20 05:10:37;;;;;;;212.93;103.28;;;;;;;;;;5096872;28;20051;-78
2020/12/20 05:13:03;;;;;;;299.00;153.52;;;;;;;;;;5097439;28;20020;-80
2020/12/20 05:15:29;;;;;;;158.32;75.88;;;;;;;;;;5097205;28;20044;-80
2020/12/20 05:18:08;;;;;;;98.85;48.10;;;;;;;;;;5097291;28;20027;-80
2020/12/20 05:20:40;;;;;;;93.57;46.47;;;;;;;;;;5097189;28;20047;-80
2020/12/20 05:23:06;;;;;;;127.22;61.97;;;;;;;;;;5097140;28;20020;-79
2020/12/20 05:25:33;;;;;;;99.97;47.65;;;;;;;;;;5097396;28;20040;-80
2020/12/20 05:28:04;;;;;;;95.72;45.05;;;;;;;;;;5097363;28;20031;-80
2020/12/20 05:30:32;;;;;;;101.38;46.65;;;;;;;;;;5096990;28;20020;-80
2020/12/20 05:32:58;;;;;;;95.53;46.88;;;;;;;;;;5097012;28;20055;-79
2020/12/20 05:35:25;;;;;;;104.30;51.33;;;;;;;;;;5097138;28;20100;-80
2020/12/20 05:37:51;;;;;;;112.00;53.15;;;;;;;;;;5097172;28;20024;-79
2020/12/20 05:40:24;;;;;;;190.40;105.85;;;;;;;;;;5096888;28;20077;-79
2020/12/20 05:42:54;;;;;;;150.48;74.30;;;;;;;;;;5096739;28;20024;-78
2020/12/20 05:45:20;;;;;;;155.20;79.88;;;;;;;;;;5096706;28;20044;-79
2020/12/20 05:47:46;;;;;;;158.30;74.43;;;;;;;;;;5097122;28;20028;-79
2020/12/20 05:50:13;;;;;;;195.10;75.43;;;;;;;;;;5096767;28;20032;-79
2020/12/20 05:52:39;;;;;;;266.88;103.70;;;;;;;;;;5098975;28;20020;-79
2020/12/20 05:55:12;;;;;;;518.42;220.18;;;;;;;;;;5100722;28;20409;-80
2020/12/20 05:57:38;;;;;;;242.40;95.70;;;;;;;;;;5100674;28;20044;-80
2020/12/20 06:00:04;;;;;;;160.07;67.47;;;;;;;;;;5082571;28;20028;-79
2020/12/20 06:02:30;;;;;;;127.90;56.63;;;;;;;;;;5100817;28;20400;-79
2020/12/20 06:04:56;;;;;;;121.75;56.50;;;;;;;;;;5100331;28;20034;-79
2020/12/20 06:07:26;;;;;;;116.15;53.63;;;;;;;;;;5082329;28;20044;-79
2020/12/20 06:09:52;;;;;;;117.57;53.75;;;;;;;;;;5100105;28;20063;-79
2020/12/20 06:12:20;;;;;;;113.50;53.65;;;;;;;;;;5100509;28;20058;-79
2020/12/20 06:14:46;;;;;;;127.80;63.08;;;;;;;;;;5082375;28;20020;-80
2020/12/20 06:17:22;;;;;;;135.73;66.18;;;;;;;;;;5100370;28;20020;-78
2020/12/20 06:20:01;;;;;;;171.32;77.93;;;;;;;;;;5100298;28;20424;-78
2020/12/20 06:22:27;;;;;;;160.85;72.25;;;;;;;;;;5100193;28;20051;-79
2020/12/20 06:24:54;;;;;;;171.15;79.63;;;;;;;;;;5100077;28;20022;-79
2020/12/20 06:27:23;;;;;;;212.48;99.32;;;;;;;;;;5099865;28;20035;-79
2020/12/20 06:29:50;;;;;;;212.10;99.50;;;;;;;;;;5100253;28;20123;-79
2020/12/20 06:32:18;;;;;;;234.68;104.40;;;;;;;;;;5100095;28;20309;-79
2020/12/20 06:34:44;;;;;;;166.65;76.93;;;;;;;;;;5100197;28;20016;-80
2020/12/20 06:37:10;;;;;;;162.32;74.10;;;;;;;;;;5100254;28;20020;-80
2020/12/20 06:39:37;;;;;;;143.02;66.35;;;;;;;;;;5099849;28;20035;-80
2020/12/20 06:42:04;;;;;;;147.80;70.55;;;;;;;;;;5082107;28;20050;-80
2020/12/20 06:44:30;;;;;;;143.55;69.97;;;;;;;;;;5081189;28;20123;-78
2020/12/20 06:46:56;;;;;;;135.43;64.43;;;;;;;;;;5099986;28;20070;-79
2020/12/20 06:49:39;;;;;;;138.02;66.75;;;;;;;;;;5099622;28;20028;-78
2020/12/20 06:52:17;;;;;;;135.57;68.72;;;;;;;;;;5099453;28;20020;-79
2020/12/20 06:55:04;;;;;;;174.88;80.45;;;;;;;;;;5099613;28;20025;-79
2020/12/20 06:57:30;;;;;;;175.10;84.35;;;;;;;;;;5099143;28;20020;-77
2020/12/20 06:59:56;;;;;;;173.85;81.65;;;;;;;;;;5099436;28;20032;-79
2020/12/20 07:02:40;;;;;;;212.05;99.00;;;;;;;;;;5099078;28;20035;-79
2020/12/20 07:05:25;;;;;;;164.02;78.47;;;;;;;;;;5099538;28;20028;-79
2020/12/20 07:08:10;;;;;;;237.50;112.85;;;;;;;;;;5099363;28;20053;-80
2020/12/20 07:10:55;;;;;;;179.63;88.95;;;;;;;;;;5099026;28;20044;-80
2020/12/20 07:13:39;;;;;;;166.38;80.25;;;;;;;;;;5099165;28;20030;-79
2020/12/20 07:16:09;;;;;;;168.85;77.00;;;;;;;;;;5099324;28;20020;-80
2020/12/20 07:18:45;;;;;;;168.50;82.97;;;;;;;;;;5099118;28;20020;-80
2020/12/20 07:21:13;;;;;;;163.60;81.90;;;;;;;;;;5081165;28;20112;-80
2020/12/20 07:23:41;;;;;;;249.15;125.40;;;;;;;;;;5099398;28;20330;-80
2020/12/20 07:26:07;;;;;;;297.38;153.18;;;;;;;;;;5098934;28;20032;-80
2020/12/20 07:28:33;;;;;;;215.60;116.55;;;;;;;;;;5098641;28;20062;-79
2020/12/20 07:30:59;;;;;;;128.13;67.18;;;;;;;;;;5098958;28;20074;-79
2020/12/20 07:33:25;;;;;;;113.78;58.58;;;;;;;;;;5098703;28;20468;-79
2020/12/20 07:35:51;;;;;;;123.80;57.15;;;;;;;;;;5080920;28;20039;-80
2020/12/20 07:38:17;;;;;;;140.38;63.42;;;;;;;;;;5080626;28;20437;-79
2020/12/20 07:40:43;;;;;;;141.38;63.25;;;;;;;;;;5098593;28;20433;-79
2020/12/20 07:43:10;;;;;;;156.82;67.30;;;;;;;;;;5098656;28;20286;-79
2020/12/20 07:45:36;;;;;;;161.43;71.00;;;;;;;;;;5098903;28;20035;-78
2020/12/20 07:48:02;;;;;;;142.85;62.70;;;;;;;;;;5098901;28;20028;-80
2020/12/20 07:50:28;;;;;;;133.05;60.25;;;;;;;;;;5098375;28;20401;-79
2020/12/20 07:52:54;;;;;;;131.13;61.78;;;;;;;;;;5098343;28;20028;-78
2020/12/20 07:55:20;;;;;;;139.55;64.63;;;;;;;;;;5098411;28;20020;-78
2020/12/20 07:57:47;;;;;;;127.00;59.25;;;;;;;;;;5098398;28;20042;-78
2020/12/20 08:00:14;;;;;;;119.68;55.78;;;;;;;;;;5098411;28;20046;-78
2020/12/20 08:02:40;;;;;;;130.45;59.00;;;;;;;;;;5098362;28;20103;-78
2020/12/20 08:05:07;;;;;;;131.13;60.72;;;;;;;;;;5080182;28;20028;-78
2020/12/20 08:07:33;;;;;;;133.70;60.83;;;;;;;;;;5097881;28;20024;-78
2020/12/20 08:09:59;;;;;;;132.70;59.65;;;;;;;;;;5097806;28;20137;-78
2020/12/20 08:12:26;;;;;;;147.38;65.53;;;;;;;;;;5080190;28;20056;-77
2020/12/20 08:15:07;;;;;;;154.13;66.32;;;;;;;;;;5097598;28;20028;-78
2020/12/20 08:17:35;;;;;;;143.25;65.07;;;;;;;;;;5098176;28;20610;-78
2020/12/20 08:20:05;;;;;;;185.77;86.15;;;;;;;;;;5097988;28;20058;-77
2020/12/20 08:22:34;;;;;;;137.98;64.60;;;;;;;;;;5079961;28;20055;-79
2020/12/20 08:25:10;;;;;;;234.32;106.15;;;;;;;;;;5098049;28;20403;-79
2020/12/20 08:27:37;;;;;;;144.57;62.38;;;;;;;;;;5079458;28;20437;-79
2020/12/20 08:30:08;;;;;;;117.38;53.20;;;;;;;;;;5097548;28;20032;-78
2020/12/20 08:32:37;;;;;;;124.35;53.85;;;;;;;;;;5097721;28;20016;-79
2020/12/20 08:35:17;;;;;;;115.75;50.75;;;;;;;;;;5097561;28;20086;-79
2020/12/20 08:37:43;;;;;;;106.53;48.25;;;;;;;;;;5097777;28;20352;-79
2020/12/20 08:40:13;;;;;;;127.53;55.30;;;;;;;;;;5097592;28;20036;-79
2020/12/20 08:42:40;;;;;;;125.22;50.53;;;;;;;;;;5097665;28;20016;-78
2020/12/20 08:45:17;;;;;;;118.78;53.15;;;;;;;;;;5097507;28;20188;-78
2020/12/20 08:47:43;;;;;;;123.43;51.97;;;;;;;;;;5097853;28;20020;-78
2020/12/20 08:50:10;;;;;;;134.20;58.15;;;;;;;;;;5097476;28;20102;-80
2020/12/20 08:52:36;;;;;;;131.95;53.80;;;;;;;;;;5097323;28;20110;-79
2020/12/20 08:55:03;;;;;;;131.30;60.95;;;;;;;;;;5097441;28;20030;-79
2020/12/20 08:57:30;;;;;;;122.57;51.85;;;;;;;;;;5097389;28;20024;-79
2020/12/20 09:00:06;;;;;;;124.32;52.45;;;;;;;;;;5097316;28;20332;-79
2020/12/20 09:02:32;;;;;;;133.23;53.67;;;;;;;;;;5075593;28;20425;-79
2020/12/20 09:04:58;;;;;;;115.65;50.35;;;;;;;;;;5097054;28;20043;-79
2020/12/20 09:07:34;;;;;;;111.78;49.80;;;;;;;;;;5097323;28;20078;-80
2020/12/20 09:10:09;;;;;;;113.35;49.25;;;;;;;;;;5097071;28;20048;-80
2020/12/20 09:12:36;;;;;;;126.03;53.47;;;;;;;;;;5097266;28;20025;-79
2020/12/20 09:15:05;;;;;;;140.93;57.88;;;;;;;;;;5097159;28;20028;-78
2020/12/20 09:17:32;;;;;;;133.75;56.67;;;;;;;;;;5096504;28;20437;-78
2020/12/20 09:19:59;;;;;;;113.07;51.67;;;;;;;;;;5075340;28;20059;-78
2020/12/20 09:22:57;;;;;;;121.43;51.42;;;;;;;;;;5076737;28;20070;-78
2020/12/20 09:25:35;;;;;;;113.50;49.13;;;;;;;;;;4995745;28;20034;-77
2020/12/20 09:28:06;;;;;;;94.70;46.88;;;;;;;;;;4999659;28;20080;-78
2020/12/20 09:30:43;;;;;;;114.15;50.15;;;;;;;;;;4999742;28;20068;-78
2020/12/20 09:33:19;;;;;;;113.45;50.45;;;;;;;;;;4999613;28;20030;-77
2020/12/20 09:35:56;;;;;;;94.47;47.58;;;;;;;;;;4999332;28;20027;-78
2020/12/20 09:38:24;;;;;;;88.10;44.33;;;;;;;;;;4980050;28;20034;-78
2020/12/20 09:41:03;;;;;;;88.43;43.60;;;;;;;;;;4980076;28;20121;-78
2020/12/20 09:43:29;;;;;;;77.20;39.50;;;;;;;;;;4980317;28;20039;-78
2020/12/20 09:45:55;;;;;;;91.78;46.40;;;;;;;;;;4980186;28;20058;-78
2020/12/20 09:48:21;;;;;;;95.65;46.75;;;;;;;;;;4979802;28;20058;-78
2020/12/20 09:50:47;;;;;;;83.82;43.80;;;;;;;;;;4979821;28;20031;-79
2020/12/20 09:53:13;;;;;;;94.28;46.60;;;;;;;;;;4974075;28;20301;-80
2020/12/20 09:55:41;;;;;;;93.95;46.00;;;;;;;;;;4999332;28;20069;-79
2020/12/20 09:58:10;;;;;;;84.80;43.78;;;;;;;;;;4997384;28;20026;-79
2020/12/20 10:00:36;;;;;;;89.97;43.50;;;;;;;;;;5004844;28;20434;-80
2020/12/20 10:03:02;;;;;;;90.45;47.78;;;;;;;;;;5042455;28;20315;-79
2020/12/20 10:05:28;;;;;;;123.95;66.13;;;;;;;;;;5060372;28;20021;-79
2020/12/20 10:07:54;;;;;;;108.80;55.60;;;;;;;;;;5067229;28;20024;-79
2020/12/20 10:10:20;;;;;;;82.55;43.17;;;;;;;;;;5070700;28;20056;-80
2020/12/20 10:12:46;;;;;;;66.13;36.08;;;;;;;;;;5060267;28;20017;-78
2020/12/20 10:15:12;;;;;;;63.53;35.95;;;;;;;;;;5059851;28;20115;-79
2020/12/20 10:17:38;;;;;;;67.22;36.70;;;;;;;;;;5059928;28;20367;-79
2020/12/20 10:20:04;;;;;;;72.00;38.97;;;;;;;;;;5059974;28;20036;-79
2020/12/20 10:22:30;;;;;;;178.13;103.40;;;;;;;;;;5041910;28;20036;-80
2020/12/20 10:24:56;;;;;;;94.53;55.33;;;;;;;;;;5059238;28;20043;-77
2020/12/20 10:27:22;;;;;;;82.60;49.30;;;;;;;;;;5080206;28;20111;-78
2020/12/20 10:29:49;;;;;;;68.97;39.53;;;;;;;;;;5079168;28;20028;-79
2020/12/20 10:32:15;;;;;;;68.85;38.88;;;;;;;;;;5079369;28;20108;-80
2020/12/20 10:34:41;;;;;;;58.38;32.78;;;;;;;;;;5052524;28;20025;-79
2020/12/20 10:37:07;;;;;;;57.88;31.63;;;;;;;;;;5060020;28;20033;-80
2020/12/20 10:39:33;;;;;;;61.83;31.58;;;;;;;;;;5092599;28;20032;-79
2020/12/20 10:41:59;;;;;;;56.15;31.75;;;;;;;;;;5075031;28;20021;-79
2020/12/20 10:44:25;;;;;;;61.63;33.53;;;;;;;;;;5078099;28;20108;-80
2020/12/20 10:46:52;;;;;;;67.07;35.17;;;;;;;;;;5075776;28;20029;-80
2020/12/20 10:49:19;;;;;;;61.85;34.25;;;;;;;;;;5080460;28;20020;-81
2020/12/20 10:51:45;;;;;;;57.70;33.22;;;;;;;;;;5075583;28;20357;-80
2020/12/20 10:54:11;;;;;;;63.10;34.90;;;;;;;;;;5074008;28;20036;-80
2020/12/20 10:56:37;;;;;;;55.13;32.08;;;;;;;;;;5064530;28;20028;-80
2020/12/20 10:59:03;;;;;;;63.17;35.22;;;;;;;;;;5073963;28;20111;-79
2020/12/20 11:01:29;;;;;;;70.82;39.65;;;;;;;;;;5063877;28;20040;-79
2020/12/20 11:03:55;;;;;;;70.05;37.92;;;;;;;;;;5076892;28;20317;-79
2020/12/20 11:09:26;;;;;;;75.13;38.35;;;;;;;;;;5073484;28;20395;-80
2020/12/20 11:11:52;;;;;;;56.28;32.78;;;;;;;;;;5079517;28;20020;-80
2020/12/20 11:14:19;;;;;;;64.30;36.03;;;;;;;;;;5078458;28;20016;-80
2020/12/20 11:16:45;;;;;;;64.97;35.42;;;;;;;;;;5077398;28;20024;-80
2020/12/20 11:19:13;;;;;;;50.47;28.23;;;;;;;;;;5067894;28;20023;-80
2020/12/20 11:21:58;;;;;;;58.22;31.48;;;;;;;;;;5072061;28;20291;-81
2020/12/20 11:24:25;;;;;;;55.42;30.60;;;;;;;;;;5078763;28;20025;-80
2020/12/20 11:26:51;;;;;;;44.03;25.35;;;;;;;;;;5078920;28;20066;-80
2020/12/20 11:29:18;;;;;;;52.83;30.23;;;;;;;;;;5078703;28;20021;-80
2020/12/20 11:31:45;;;;;;;64.38;32.75;;;;;;;;;;5060456;28;20367;-81
2020/12/20 11:34:11;;;;;;;60.53;31.77;;;;;;;;;;5078388;28;20099;-80
2020/12/20 11:36:37;;;;;;;69.47;36.08;;;;;;;;;;5063746;28;20041;-80
2020/12/20 11:39:05;;;;;;;66.93;35.08;;;;;;;;;;5067672;28;20020;-80
2020/12/20 11:41:31;;;;;;;83.85;44.33;;;;;;;;;;5080945;28;20024;-80
2020/12/20 11:43:58;;;;;;;124.70;64.93;;;;;;;;;;5081204;28;20051;-80
2020/12/20 11:46:24;;;;;;;90.85;49.13;;;;;;;;;;5062425;28;20028;-80
2020/12/20 11:48:50;;;;;;;76.95;43.67;;;;;;;;;;5060239;28;20406;-80
2020/12/20 11:51:17;;;;;;;68.63;38.53;;;;;;;;;;5069659;28;20436;-81
2020/12/20 11:53:43;;;;;;;73.88;38.75;;;;;;;;;;5085711;28;20344;-80
2020/12/20 11:56:10;;;;;;;68.50;36.45;;;;;;;;;;5089742;28;20017;-80
2020/12/20 11:58:38;;;;;;;67.15;35.38;;;;;;;;;;5082876;28;20116;-79
2020/12/20 12:01:04;;;;;;;64.43;35.90;;;;;;;;;;5066701;28;20058;-80
2020/12/20 12:03:30;;;;;;;73.25;38.17;;;;;;;;;;5075876;28;20025;-80
2020/12/20 12:05:57;;;;;;;81.97;44.63;;;;;;;;;;5093781;28;20062;-79
2020/12/20 12:08:23;;;;;;;86.38;41.88;;;;;;;;;;5073714;28;20024;-79
2020/12/20 12:10:49;;;;;;;74.45;37.83;;;;;;;;;;5077836;28;20442;-79
2020/12/20 12:13:15;;;;;;;78.25;43.80;;;;;;;;;;5052745;28;20339;-80
2020/12/20 12:15:42;;;;;;;80.95;42.88;;;;;;;;;;5067948;28;20470;-79
2020/12/20 12:18:08;;;;;;;76.85;39.25;;;;;;;;;;5039740;28;20300;-80
2020/12/20 12:20:35;;;;;;;71.22;38.28;;;;;;;;;;5093247;28;20063;-74
2020/12/20 12:23:01;;;;;;;63.95;36.78;;;;;;;;;;5088776;28;20363;-79
2020/12/20 12:25:27;;;;;;;53.28;30.85;;;;;;;;;;5065661;28;20025;-80
2020/12/20 12:27:53;;;;;;;56.28;32.03;;;;;;;;;;5060109;28;20025;-79
2020/12/20 12:30:19;;;;;;;54.40;30.33;;;;;;;;;;5079418;28;20413;-79
2020/12/20 12:32:45;;;;;;;79.65;40.67;;;;;;;;;;5087758;28;20029;-80
2020/12/20 12:35:11;;;;;;;63.10;34.60;;;;;;;;;;5080332;28;20580;-80
2020/12/20 12:37:38;;;;;;;59.60;31.33;;;;;;;;;;5063255;28;20318;-81
2020/12/20 12:40:05;;;;;;;58.40;31.45;;;;;;;;;;5077171;28;20047;-81
2020/12/20 12:42:31;;;;;;;77.75;38.92;;;;;;;;;;5097627;28;20111;-81
2020/12/20 12:44:57;;;;;;;81.80;40.35;;;;;;;;;;5090064;28;20029;-81
2020/12/20 12:47:23;;;;;;;53.53;29.95;;;;;;;;;;5077585;28;20342;-82
2020/12/20 12:49:49;;;;;;;56.70;29.35;;;;;;;;;;5063803;28;20055;-82
2020/12/20 12:52:16;;;;;;;76.80;39.88;;;;;;;;;;5057133;28;20419;-79
2020/12/20 12:54:42;;;;;;;79.15;39.28;;;;;;;;;;5039277;28;20037;-80
2020/12/20 12:57:08;;;;;;;106.03;48.30;;;;;;;;;;5057471;28;20021;-82
2020/12/20 12:59:34;;;;;;;144.80;65.70;;;;;;;;;;5040311;28;20052;-93
2020/12/20 13:02:00;;;;;;;97.82;47.30;;;;;;;;;;5057487;28;20029;-90
2020/12/20 13:04:26;;;;;;;72.97;39.55;;;;;;;;;;5073626;28;20059;-91
2020/12/20 13:09:56;;;;;;;90.20;44.65;;;;;;;;;;5075892;28;20059;-90
2020/12/20 13:12:23;;;;;;;94.22;47.13;;;;;;;;;;5060078;28;20448;-90
2020/12/20 13:14:49;;;;;;;109.22;52.28;;;;;;;;;;5059662;28;20041;-89
2020/12/20 13:17:15;;;;;;;116.70;57.55;;;;;;;;;;5077294;28;20028;-89
2020/12/20 13:19:41;;;;;;;100.10;49.03;;;;;;;;;;5077269;28;20021;-89
2020/12/20 13:31:19;;;;;;;57.28;32.47;;;;;;;;;;5057691;28;20091;-90
2020/12/20 13:33:45;;;;;;;51.58;30.63;;;;;;;;;;5056702;28;20055;-90
2020/12/20 13:36:11;;;;;;;57.03;31.77;;;;;;;;;;5056486;28;20025;-90
2020/12/20 13:38:37;;;;;;;63.17;33.20;;;;;;;;;;5056318;28;20415;-90
2020/12/20 13:41:03;;;;;;;59.50;34.40;;;;;;;;;;5057056;28;20037;-90
2020/12/20 13:43:30;;;;;;;68.15;36.80;;;;;;;;;;5064279;28;20521;-88
2020/12/20 13:45:57;;;;;;;64.20;37.10;;;;;;;;;;5058265;28;20442;-83
2020/12/20 13:48:23;;;;;;;74.78;44.05;;;;;;;;;;5069748;28;20017;-79
2020/12/20 13:50:49;;;;;;;80.85;45.38;;;;;;;;;;5076357;28;20052;-80
2020/12/20 13:53:15;;;;;;;124.97;77.43;;;;;;;;;;5081501;28;20055;-79
2020/12/20 13:55:41;;;;;;;69.80;41.28;;;;;;;;;;5060443;28;20365;-79
2020/12/20 13:58:07;;;;;;;59.08;33.38;;;;;;;;;;5087116;28;20418;-80
2020/12/20 14:00:36;;;;;;;55.55;31.35;;;;;;;;;;5084111;28;20020;-79
2020/12/20 14:03:02;;;;;;;59.80;33.03;;;;;;;;;;5088813;28;20398;-79
2020/12/20 14:05:28;;;;;;;53.22;31.85;;;;;;;;;;5085174;28;20067;-80
2020/12/20 14:07:54;;;;;;;55.28;32.25;;;;;;;;;;5086755;28;20024;-81
2020/12/20 14:10:20;;;;;;;58.10;32.95;;;;;;;;;;5076165;28;20041;-82
2020/12/20 14:12:46;;;;;;;63.78;35.47;;;;;;;;;;5069693;28;20047;-81
2020/12/20 14:15:12;;;;;;;62.50;36.80;;;;;;;;;;5079154;28;20020;-80
2020/12/20 14:17:38;;;;;;;59.10;33.22;;;;;;;;;;5087875;28;20028;-82
2020/12/20 14:20:05;;;;;;;84.85;46.63;;;;;;;;;;5084806;28;20021;-81
2020/12/20 14:22:31;;;;;;;91.40;48.35;;;;;;;;;;5066093;28;20094;-79
2020/12/20 14:24:57;;;;;;;54.55;32.17;;;;;;;;;;5097312;28;20083;-79
2020/12/20 14:27:24;;;;;;;49.05;29.17;;;;;;;;;;5080872;28;20025;-79
2020/12/20 14:29:50;;;;;;;49.25;29.48;;;;;;;;;;5096158;28;20036;-79
2020/12/20 14:32:16;;;;;;;53.90;31.20;;;;;;;;;;5061389;28;20078;-79